MET'MAP v2.0
soon released !

Expected late october,
this new version will be
more efficient, smarter,
and hosted on a brand new
server x3 powerfull...
...and still free !


Not compatible ?
Try the mobile version !

LOG IN : | Subscribe | Disclaimer | Who is Orbifly ? |
ICAO code :

TAF - ESGP Save AB - 28 Feb 2020 01:51 UTC - Data Source NOAA   


- Airport Elevation : 59 ft
- IATA code : GSE
- No reported NOTAMs.


ESGP - Save AB

Latest METAR recorded : 2015/08/11 08:20 ESGP 110820Z 15005KT 9999 -RA FEW023 OVC061 16/14 Q1018 REDZ
Expired Forecast.

Source NOAA


MET'MAP, your aeronautical weather chart ! - Copyright ORBIFLY December 2007

Programming & Development : Alexandra Zaïnal
Co-Developer : Marc-Olivier Méhu
Technical & hardware support : Manuel Goepfert
Concept & Financing : Baudouin d'Aumeries